sensor_id;sensor_type;location;lat;lon;timestamp;P1;durP1;ratioP1;P2;durP2;ratioP2
17145;SDS011;8688;54.444;18.444;2023-03-12T00:01:57;5.00;;;2.60;;
17145;SDS011;8688;54.444;18.444;2023-03-12T00:04:25;5.13;;;2.60;;
17145;SDS011;8688;54.444;18.444;2023-03-12T00:06:54;4.10;;;2.60;;
17145;SDS011;8688;54.444;18.444;2023-03-12T00:09:21;6.57;;;4.03;;
17145;SDS011;8688;54.444;18.444;2023-03-12T00:11:49;6.03;;;3.00;;
17145;SDS011;8688;54.444;18.444;2023-03-12T00:14:16;5.37;;;2.73;;
17145;SDS011;8688;54.444;18.444;2023-03-12T00:16:44;5.00;;;2.70;;
17145;SDS011;8688;54.444;18.444;2023-03-12T00:19:11;4.43;;;2.30;;
17145;SDS011;8688;54.444;18.444;2023-03-12T00:21:39;4.23;;;1.97;;
17145;SDS011;8688;54.444;18.444;2023-03-12T00:24:08;4.33;;;2.00;;
17145;SDS011;8688;54.444;18.444;2023-03-12T00:26:35;3.70;;;2.10;;
17145;SDS011;8688;54.444;18.444;2023-03-12T00:29:03;7.23;;;2.10;;
17145;SDS011;8688;54.444;18.444;2023-03-12T00:31:31;4.47;;;1.77;;
17145;SDS011;8688;54.444;18.444;2023-03-12T00:33:59;3.80;;;1.83;;
17145;SDS011;8688;54.444;18.444;2023-03-12T00:36:28;5.40;;;1.97;;
17145;SDS011;8688;54.444;18.444;2023-03-12T00:38:56;2.20;;;1.33;;
17145;SDS011;8688;54.444;18.444;2023-03-12T00:41:26;5.33;;;1.93;;
17145;SDS011;8688;54.444;18.444;2023-03-12T00:43:55;5.57;;;2.20;;
17145;SDS011;8688;54.444;18.444;2023-03-12T00:46:22;2.13;;;1.33;;
17145;SDS011;8688;54.444;18.444;2023-03-12T00:48:51;4.40;;;1.90;;
17145;SDS011;8688;54.444;18.444;2023-03-12T00:51:19;3.67;;;1.50;;
17145;SDS011;8688;54.444;18.444;2023-03-12T00:53:46;1.03;;;0.93;;
17145;SDS011;8688;54.444;18.444;2023-03-12T00:56:14;2.63;;;1.13;;
17145;SDS011;8688;54.444;18.444;2023-03-12T00:58:43;4.17;;;0.87;;
17145;SDS011;8688;54.444;18.444;2023-03-12T01:01:10;1.53;;;0.60;;
17145;SDS011;8688;54.444;18.444;2023-03-12T01:03:38;1.40;;;0.70;;
17145;SDS011;8688;54.444;18.444;2023-03-12T01:06:05;2.97;;;0.80;;
17145;SDS011;8688;54.444;18.444;2023-03-12T01:08:33;1.60;;;0.90;;
17145;SDS011;8688;54.444;18.444;2023-03-12T01:11:01;1.37;;;0.90;;
17145;SDS011;8688;54.444;18.444;2023-03-12T01:13:28;1.33;;;0.87;;
17145;SDS011;8688;54.444;18.444;2023-03-12T01:15:57;3.10;;;1.10;;
17145;SDS011;8688;54.444;18.444;2023-03-12T01:18:25;2.73;;;1.37;;
17145;SDS011;8688;54.444;18.444;2023-03-12T01:20:53;2.00;;;1.00;;
17145;SDS011;8688;54.444;18.444;2023-03-12T01:23:20;1.90;;;1.10;;
17145;SDS011;8688;54.444;18.444;2023-03-12T01:25:48;2.30;;;0.97;;
17145;SDS011;8688;54.444;18.444;2023-03-12T01:28:16;1.73;;;0.70;;
17145;SDS011;8688;54.444;18.444;2023-03-12T01:30:43;2.67;;;0.90;;
17145;SDS011;8688;54.444;18.444;2023-03-12T01:33:12;2.10;;;0.90;;
17145;SDS011;8688;54.444;18.444;2023-03-12T01:35:41;0.97;;;0.70;;
17145;SDS011;8688;54.444;18.444;2023-03-12T01:38:10;2.80;;;0.80;;
17145;SDS011;8688;54.444;18.444;2023-03-12T01:40:43;2.57;;;0.60;;
17145;SDS011;8688;54.444;18.444;2023-03-12T01:43:20;1.40;;;0.60;;
17145;SDS011;8688;54.444;18.444;2023-03-12T01:45:58;3.97;;;2.63;;
17145;SDS011;8688;54.444;18.444;2023-03-12T01:48:35;4.90;;;2.30;;
17145;SDS011;8688;54.444;18.444;2023-03-12T01:51:06;2.57;;;1.17;;
17145;SDS011;8688;54.444;18.444;2023-03-12T01:53:36;1.53;;;0.87;;
17145;SDS011;8688;54.444;18.444;2023-03-12T01:56:05;3.80;;;2.20;;
17145;SDS011;8688;54.444;18.444;2023-03-12T01:58:34;2.00;;;0.77;;
17145;SDS011;8688;54.444;18.444;2023-03-12T02:01:05;5.30;;;1.17;;
17145;SDS011;8688;54.444;18.444;2023-03-12T02:03:34;0.87;;;0.80;;
17145;SDS011;8688;54.444;18.444;2023-03-12T02:06:03;0.73;;;0.73;;
17145;SDS011;8688;54.444;18.444;2023-03-12T02:08:34;4.87;;;1.30;;
17145;SDS011;8688;54.444;18.444;2023-03-12T02:11:03;4.13;;;0.90;;
17145;SDS011;8688;54.444;18.444;2023-03-12T02:13:31;1.03;;;0.70;;
17145;SDS011;8688;54.444;18.444;2023-03-12T02:15:59;4.53;;;1.23;;
17145;SDS011;8688;54.444;18.444;2023-03-12T02:18:26;2.77;;;1.10;;
17145;SDS011;8688;54.444;18.444;2023-03-12T02:20:58;3.40;;;1.40;;
17145;SDS011;8688;54.444;18.444;2023-03-12T02:23:34;3.80;;;1.60;;
17145;SDS011;8688;54.444;18.444;2023-03-12T02:26:09;4.80;;;1.30;;
17145;SDS011;8688;54.444;18.444;2023-03-12T02:28:37;5.50;;;1.60;;
17145;SDS011;8688;54.444;18.444;2023-03-12T02:31:10;2.03;;;0.87;;
17145;SDS011;8688;54.444;18.444;2023-03-12T02:33:39;7.87;;;1.20;;
17145;SDS011;8688;54.444;18.444;2023-03-12T02:36:07;4.27;;;1.07;;
17145;SDS011;8688;54.444;18.444;2023-03-12T02:38:39;3.73;;;1.00;;
17145;SDS011;8688;54.444;18.444;2023-03-12T02:41:14;2.87;;;0.90;;
17145;SDS011;8688;54.444;18.444;2023-03-12T02:43:46;1.73;;;0.63;;
17145;SDS011;8688;54.444;18.444;2023-03-12T02:46:17;2.70;;;1.00;;
17145;SDS011;8688;54.444;18.444;2023-03-12T02:48:45;2.03;;;0.50;;
17145;SDS011;8688;54.444;18.444;2023-03-12T02:51:13;3.23;;;1.03;;
17145;SDS011;8688;54.444;18.444;2023-03-12T02:53:40;6.50;;;1.20;;
17145;SDS011;8688;54.444;18.444;2023-03-12T02:56:08;2.37;;;0.70;;
17145;SDS011;8688;54.444;18.444;2023-03-12T02:58:37;3.63;;;1.30;;
17145;SDS011;8688;54.444;18.444;2023-03-12T03:01:04;6.27;;;1.20;;
17145;SDS011;8688;54.444;18.444;2023-03-12T03:03:31;2.13;;;0.60;;
17145;SDS011;8688;54.444;18.444;2023-03-12T03:05:59;3.90;;;1.23;;
17145;SDS011;8688;54.444;18.444;2023-03-12T03:08:27;5.93;;;1.23;;
17145;SDS011;8688;54.444;18.444;2023-03-12T03:10:54;2.73;;;1.00;;
17145;SDS011;8688;54.444;18.444;2023-03-12T03:13:22;3.60;;;1.10;;
17145;SDS011;8688;54.444;18.444;2023-03-12T03:15:51;6.63;;;1.40;;
17145;SDS011;8688;54.444;18.444;2023-03-12T03:18:18;3.20;;;0.70;;
17145;SDS011;8688;54.444;18.444;2023-03-12T03:20:47;3.73;;;0.63;;
17145;SDS011;8688;54.444;18.444;2023-03-12T03:23:21;2.30;;;0.80;;
17145;SDS011;8688;54.444;18.444;2023-03-12T03:25:48;8.57;;;1.10;;
17145;SDS011;8688;54.444;18.444;2023-03-12T03:28:17;6.37;;;0.83;;
17145;SDS011;8688;54.444;18.444;2023-03-12T03:30:44;3.80;;;0.83;;
17145;SDS011;8688;54.444;18.444;2023-03-12T03:33:13;4.17;;;1.00;;
17145;SDS011;8688;54.444;18.444;2023-03-12T03:35:41;8.57;;;2.80;;
17145;SDS011;8688;54.444;18.444;2023-03-12T03:38:08;6.27;;;2.60;;
17145;SDS011;8688;54.444;18.444;2023-03-12T03:40:36;10.90;;;2.77;;
17145;SDS011;8688;54.444;18.444;2023-03-12T03:43:04;5.53;;;1.70;;
17145;SDS011;8688;54.444;18.444;2023-03-12T03:45:31;3.50;;;0.50;;
17145;SDS011;8688;54.444;18.444;2023-03-12T03:47:59;7.73;;;0.90;;
17145;SDS011;8688;54.444;18.444;2023-03-12T03:50:28;10.23;;;1.20;;
17145;SDS011;8688;54.444;18.444;2023-03-12T03:52:55;3.33;;;0.70;;
17145;SDS011;8688;54.444;18.444;2023-03-12T03:55:23;3.40;;;0.70;;
17145;SDS011;8688;54.444;18.444;2023-03-12T03:57:50;2.10;;;1.00;;
17145;SDS011;8688;54.444;18.444;2023-03-12T04:00:18;4.23;;;0.60;;
17145;SDS011;8688;54.444;18.444;2023-03-12T04:02:46;5.20;;;0.70;;
17145;SDS011;8688;54.444;18.444;2023-03-12T04:05:13;4.60;;;0.90;;
17145;SDS011;8688;54.444;18.444;2023-03-12T04:07:45;1.80;;;0.40;;
17145;SDS011;8688;54.444;18.444;2023-03-12T04:10:12;2.10;;;0.60;;
17145;SDS011;8688;54.444;18.444;2023-03-12T04:12:40;2.87;;;1.40;;
17145;SDS011;8688;54.444;18.444;2023-03-12T04:15:07;3.17;;;0.87;;
17145;SDS011;8688;54.444;18.444;2023-03-12T04:17:36;1.87;;;0.87;;
17145;SDS011;8688;54.444;18.444;2023-03-12T04:20:03;3.97;;;0.57;;
17145;SDS011;8688;54.444;18.444;2023-03-12T04:22:33;2.80;;;0.70;;
17145;SDS011;8688;54.444;18.444;2023-03-12T04:25:03;2.23;;;0.60;;
17145;SDS011;8688;54.444;18.444;2023-03-12T04:27:33;4.90;;;0.73;;
17145;SDS011;8688;54.444;18.444;2023-03-12T04:30:01;1.87;;;0.73;;
17145;SDS011;8688;54.444;18.444;2023-03-12T04:32:29;4.23;;;1.47;;
17145;SDS011;8688;54.444;18.444;2023-03-12T04:34:56;3.67;;;0.73;;
17145;SDS011;8688;54.444;18.444;2023-03-12T04:37:23;1.87;;;0.70;;
17145;SDS011;8688;54.444;18.444;2023-03-12T04:39:51;3.27;;;0.50;;
17145;SDS011;8688;54.444;18.444;2023-03-12T04:42:20;4.83;;;0.73;;
17145;SDS011;8688;54.444;18.444;2023-03-12T04:44:49;2.13;;;0.83;;
17145;SDS011;8688;54.444;18.444;2023-03-12T04:47:17;2.43;;;0.60;;
17145;SDS011;8688;54.444;18.444;2023-03-12T04:49:44;2.83;;;0.43;;
17145;SDS011;8688;54.444;18.444;2023-03-12T04:52:12;3.20;;;0.60;;
17145;SDS011;8688;54.444;18.444;2023-03-12T04:54:39;3.90;;;0.57;;
17145;SDS011;8688;54.444;18.444;2023-03-12T04:57:06;3.30;;;0.53;;
17145;SDS011;8688;54.444;18.444;2023-03-12T04:59:35;3.53;;;0.80;;
17145;SDS011;8688;54.444;18.444;2023-03-12T05:02:03;0.80;;;0.60;;
17145;SDS011;8688;54.444;18.444;2023-03-12T05:04:30;4.83;;;1.10;;
17145;SDS011;8688;54.444;18.444;2023-03-12T05:06:58;2.47;;;0.60;;
17145;SDS011;8688;54.444;18.444;2023-03-12T05:09:25;3.60;;;0.73;;
17145;SDS011;8688;54.444;18.444;2023-03-12T05:11:52;2.40;;;0.50;;
17145;SDS011;8688;54.444;18.444;2023-03-12T05:14:20;4.13;;;0.60;;
17145;SDS011;8688;54.444;18.444;2023-03-12T05:16:49;4.03;;;0.80;;
17145;SDS011;8688;54.444;18.444;2023-03-12T05:19:16;3.60;;;0.83;;
17145;SDS011;8688;54.444;18.444;2023-03-12T05:21:44;2.30;;;0.50;;
17145;SDS011;8688;54.444;18.444;2023-03-12T05:24:11;3.80;;;0.50;;
17145;SDS011;8688;54.444;18.444;2023-03-12T05:26:39;5.10;;;0.93;;
17145;SDS011;8688;54.444;18.444;2023-03-12T05:29:06;4.50;;;0.80;;
17145;SDS011;8688;54.444;18.444;2023-03-12T05:31:34;3.07;;;0.77;;
17145;SDS011;8688;54.444;18.444;2023-03-12T05:34:03;4.40;;;1.00;;
17145;SDS011;8688;54.444;18.444;2023-03-12T05:36:31;4.77;;;0.93;;
17145;SDS011;8688;54.444;18.444;2023-03-12T05:38:58;5.90;;;1.53;;
17145;SDS011;8688;54.444;18.444;2023-03-12T05:41:26;5.27;;;0.90;;
17145;SDS011;8688;54.444;18.444;2023-03-12T05:43:55;2.60;;;0.83;;
17145;SDS011;8688;54.444;18.444;2023-03-12T05:46:24;4.10;;;1.10;;
17145;SDS011;8688;54.444;18.444;2023-03-12T05:48:53;1.30;;;0.60;;
17145;SDS011;8688;54.444;18.444;2023-03-12T05:51:22;3.73;;;1.00;;
17145;SDS011;8688;54.444;18.444;2023-03-12T05:53:49;6.40;;;1.40;;
17145;SDS011;8688;54.444;18.444;2023-03-12T05:56:16;2.70;;;0.73;;
17145;SDS011;8688;54.444;18.444;2023-03-12T05:58:46;2.93;;;1.33;;
17145;SDS011;8688;54.444;18.444;2023-03-12T06:01:15;4.10;;;0.90;;
17145;SDS011;8688;54.444;18.444;2023-03-12T06:03:44;1.23;;;0.47;;
17145;SDS011;8688;54.444;18.444;2023-03-12T06:06:12;3.50;;;0.60;;
17145;SDS011;8688;54.444;18.444;2023-03-12T06:08:41;1.33;;;0.57;;
17145;SDS011;8688;54.444;18.444;2023-03-12T06:11:08;0.47;;;0.30;;
17145;SDS011;8688;54.444;18.444;2023-03-12T06:13:36;1.63;;;0.70;;
17145;SDS011;8688;54.444;18.444;2023-03-12T06:16:04;2.37;;;0.50;;
17145;SDS011;8688;54.444;18.444;2023-03-12T06:18:34;1.10;;;0.50;;
17145;SDS011;8688;54.444;18.444;2023-03-12T06:21:09;4.17;;;0.80;;
17145;SDS011;8688;54.444;18.444;2023-03-12T06:23:37;1.60;;;0.47;;
17145;SDS011;8688;54.444;18.444;2023-03-12T06:26:09;1.07;;;0.60;;
17145;SDS011;8688;54.444;18.444;2023-03-12T06:28:37;1.67;;;0.90;;
17145;SDS011;8688;54.444;18.444;2023-03-12T06:31:05;2.27;;;0.57;;
17145;SDS011;8688;54.444;18.444;2023-03-12T06:33:33;4.87;;;0.80;;
17145;SDS011;8688;54.444;18.444;2023-03-12T06:36:02;2.77;;;0.80;;
17145;SDS011;8688;54.444;18.444;2023-03-12T06:38:31;3.83;;;1.00;;
17145;SDS011;8688;54.444;18.444;2023-03-12T06:40:59;3.07;;;0.50;;
17145;SDS011;8688;54.444;18.444;2023-03-12T06:43:29;4.73;;;0.90;;
17145;SDS011;8688;54.444;18.444;2023-03-12T06:45:58;1.97;;;0.60;;
17145;SDS011;8688;54.444;18.444;2023-03-12T06:48:27;2.07;;;0.47;;
17145;SDS011;8688;54.444;18.444;2023-03-12T06:50:57;6.23;;;0.50;;
17145;SDS011;8688;54.444;18.444;2023-03-12T06:53:25;1.90;;;0.70;;
17145;SDS011;8688;54.444;18.444;2023-03-12T06:55:52;2.67;;;1.20;;
17145;SDS011;8688;54.444;18.444;2023-03-12T06:58:19;1.97;;;0.60;;
17145;SDS011;8688;54.444;18.444;2023-03-12T07:00:48;3.40;;;0.90;;
17145;SDS011;8688;54.444;18.444;2023-03-12T07:03:16;5.03;;;0.70;;
17145;SDS011;8688;54.444;18.444;2023-03-12T07:05:44;3.87;;;1.33;;
17145;SDS011;8688;54.444;18.444;2023-03-12T07:08:12;1.70;;;0.60;;
17145;SDS011;8688;54.444;18.444;2023-03-12T07:10:40;4.30;;;0.63;;
17145;SDS011;8688;54.444;18.444;2023-03-12T07:13:07;0.93;;;0.67;;
17145;SDS011;8688;54.444;18.444;2023-03-12T07:15:35;3.97;;;0.80;;
17145;SDS011;8688;54.444;18.444;2023-03-12T07:18:04;1.57;;;0.53;;
17145;SDS011;8688;54.444;18.444;2023-03-12T07:20:35;2.07;;;0.47;;
17145;SDS011;8688;54.444;18.444;2023-03-12T07:23:04;3.73;;;0.70;;
17145;SDS011;8688;54.444;18.444;2023-03-12T07:25:33;6.17;;;0.90;;
17145;SDS011;8688;54.444;18.444;2023-03-12T07:28:01;6.40;;;0.90;;
17145;SDS011;8688;54.444;18.444;2023-03-12T07:30:29;2.30;;;0.57;;
17145;SDS011;8688;54.444;18.444;2023-03-12T07:32:58;2.77;;;0.50;;
17145;SDS011;8688;54.444;18.444;2023-03-12T07:35:27;3.77;;;0.60;;
17145;SDS011;8688;54.444;18.444;2023-03-12T07:37:54;4.70;;;1.20;;
17145;SDS011;8688;54.444;18.444;2023-03-12T07:40:22;2.70;;;0.70;;
17145;SDS011;8688;54.444;18.444;2023-03-12T07:42:49;2.20;;;0.80;;
17145;SDS011;8688;54.444;18.444;2023-03-12T07:45:17;3.73;;;0.90;;
17145;SDS011;8688;54.444;18.444;2023-03-12T07:47:45;2.13;;;1.17;;
17145;SDS011;8688;54.444;18.444;2023-03-12T07:50:13;2.17;;;0.90;;
17145;SDS011;8688;54.444;18.444;2023-03-12T07:52:43;7.33;;;0.83;;
17145;SDS011;8688;54.444;18.444;2023-03-12T07:55:11;9.67;;;1.73;;
17145;SDS011;8688;54.444;18.444;2023-03-12T07:57:38;4.23;;;1.67;;
17145;SDS011;8688;54.444;18.444;2023-03-12T08:00:06;9.23;;;1.87;;
17145;SDS011;8688;54.444;18.444;2023-03-12T08:02:35;3.23;;;1.30;;
17145;SDS011;8688;54.444;18.444;2023-03-12T08:05:03;5.40;;;1.30;;
17145;SDS011;8688;54.444;18.444;2023-03-12T08:07:31;4.90;;;1.50;;
17145;SDS011;8688;54.444;18.444;2023-03-12T08:10:01;4.83;;;1.00;;
17145;SDS011;8688;54.444;18.444;2023-03-12T08:12:30;3.17;;;0.87;;
17145;SDS011;8688;54.444;18.444;2023-03-12T08:14:59;5.77;;;0.80;;
17145;SDS011;8688;54.444;18.444;2023-03-12T08:17:26;2.20;;;0.93;;
17145;SDS011;8688;54.444;18.444;2023-03-12T08:19:54;3.63;;;1.30;;
17145;SDS011;8688;54.444;18.444;2023-03-12T08:22:21;4.67;;;1.20;;
17145;SDS011;8688;54.444;18.444;2023-03-12T08:24:49;2.40;;;0.50;;
17145;SDS011;8688;54.444;18.444;2023-03-12T08:27:18;4.97;;;0.50;;
17145;SDS011;8688;54.444;18.444;2023-03-12T08:29:45;5.23;;;0.57;;
17145;SDS011;8688;54.444;18.444;2023-03-12T08:32:13;2.63;;;0.70;;
17145;SDS011;8688;54.444;18.444;2023-03-12T08:34:40;6.60;;;1.30;;
17145;SDS011;8688;54.444;18.444;2023-03-12T08:37:08;3.20;;;0.77;;
17145;SDS011;8688;54.444;18.444;2023-03-12T08:39:35;5.03;;;0.73;;
17145;SDS011;8688;54.444;18.444;2023-03-12T08:42:03;5.80;;;0.80;;
17145;SDS011;8688;54.444;18.444;2023-03-12T08:44:33;3.33;;;1.10;;
17145;SDS011;8688;54.444;18.444;2023-03-12T08:47:00;6.20;;;1.03;;
17145;SDS011;8688;54.444;18.444;2023-03-12T08:49:28;5.27;;;1.23;;
17145;SDS011;8688;54.444;18.444;2023-03-12T08:51:55;2.80;;;0.90;;
17145;SDS011;8688;54.444;18.444;2023-03-12T08:54:23;3.00;;;0.80;;
17145;SDS011;8688;54.444;18.444;2023-03-12T08:56:50;3.10;;;0.80;;
17145;SDS011;8688;54.444;18.444;2023-03-12T08:59:19;3.43;;;1.10;;
17145;SDS011;8688;54.444;18.444;2023-03-12T09:01:49;1.13;;;0.70;;
17145;SDS011;8688;54.444;18.444;2023-03-12T09:04:16;3.13;;;0.77;;
17145;SDS011;8688;54.444;18.444;2023-03-12T09:06:44;3.90;;;1.00;;
17145;SDS011;8688;54.444;18.444;2023-03-12T09:09:11;3.90;;;0.67;;
17145;SDS011;8688;54.444;18.444;2023-03-12T09:11:38;4.03;;;0.70;;
17145;SDS011;8688;54.444;18.444;2023-03-12T09:14:06;3.63;;;0.70;;
17145;SDS011;8688;54.444;18.444;2023-03-12T09:16:35;1.73;;;0.70;;
17145;SDS011;8688;54.444;18.444;2023-03-12T09:19:04;2.23;;;0.53;;
17145;SDS011;8688;54.444;18.444;2023-03-12T09:21:31;5.83;;;1.13;;
17145;SDS011;8688;54.444;18.444;2023-03-12T09:23:59;2.23;;;0.50;;
17145;SDS011;8688;54.444;18.444;2023-03-12T09:26:26;2.37;;;0.50;;
17145;SDS011;8688;54.444;18.444;2023-03-12T09:28:54;4.80;;;0.80;;
17145;SDS011;8688;54.444;18.444;2023-03-12T09:31:23;4.37;;;1.33;;
17145;SDS011;8688;54.444;18.444;2023-03-12T09:33:53;6.97;;;1.67;;
17145;SDS011;8688;54.444;18.444;2023-03-12T09:36:22;3.87;;;0.63;;
17145;SDS011;8688;54.444;18.444;2023-03-12T09:38:51;3.07;;;0.83;;
17145;SDS011;8688;54.444;18.444;2023-03-12T09:41:20;5.47;;;0.67;;
17145;SDS011;8688;54.444;18.444;2023-03-12T09:43:51;2.37;;;0.40;;
17145;SDS011;8688;54.444;18.444;2023-03-12T09:46:23;2.80;;;0.70;;
17145;SDS011;8688;54.444;18.444;2023-03-12T09:48:53;3.30;;;0.50;;
17145;SDS011;8688;54.444;18.444;2023-03-12T09:51:26;2.57;;;0.53;;
17145;SDS011;8688;54.444;18.444;2023-03-12T09:53:58;5.73;;;1.23;;
17145;SDS011;8688;54.444;18.444;2023-03-12T09:56:28;3.30;;;1.23;;
17145;SDS011;8688;54.444;18.444;2023-03-12T09:58:56;3.13;;;1.23;;
17145;SDS011;8688;54.444;18.444;2023-03-12T10:01:33;5.90;;;1.53;;
17145;SDS011;8688;54.444;18.444;2023-03-12T10:04:10;1.70;;;0.60;;
17145;SDS011;8688;54.444;18.444;2023-03-12T10:06:50;4.50;;;0.87;;
17145;SDS011;8688;54.444;18.444;2023-03-12T10:09:34;4.73;;;0.70;;
17145;SDS011;8688;54.444;18.444;2023-03-12T10:12:17;3.83;;;0.90;;
17145;SDS011;8688;54.444;18.444;2023-03-12T10:14:53;1.43;;;0.53;;
17145;SDS011;8688;54.444;18.444;2023-03-12T10:17:34;5.10;;;0.73;;
17145;SDS011;8688;54.444;18.444;2023-03-12T10:20:22;2.60;;;0.70;;
17145;SDS011;8688;54.444;18.444;2023-03-12T10:23:02;2.43;;;0.80;;
17145;SDS011;8688;54.444;18.444;2023-03-12T10:25:37;4.17;;;0.83;;
17145;SDS011;8688;54.444;18.444;2023-03-12T10:28:12;1.00;;;0.43;;
17145;SDS011;8688;54.444;18.444;2023-03-12T10:30:47;2.07;;;0.80;;
17145;SDS011;8688;54.444;18.444;2023-03-12T10:33:19;3.13;;;0.90;;
17145;SDS011;8688;54.444;18.444;2023-03-12T10:35:50;2.17;;;0.87;;
17145;SDS011;8688;54.444;18.444;2023-03-12T10:38:24;2.57;;;0.70;;
17145;SDS011;8688;54.444;18.444;2023-03-12T10:40:56;3.40;;;1.00;;
17145;SDS011;8688;54.444;18.444;2023-03-12T10:43:24;4.00;;;1.20;;
17145;SDS011;8688;54.444;18.444;2023-03-12T10:45:56;3.60;;;0.90;;
17145;SDS011;8688;54.444;18.444;2023-03-12T10:48:36;6.00;;;1.27;;
17145;SDS011;8688;54.444;18.444;2023-03-12T10:51:04;2.93;;;0.80;;
17145;SDS011;8688;54.444;18.444;2023-03-12T10:53:35;1.00;;;0.70;;
17145;SDS011;8688;54.444;18.444;2023-03-12T10:56:04;1.83;;;0.60;;
17145;SDS011;8688;54.444;18.444;2023-03-12T10:58:34;3.63;;;0.73;;
17145;SDS011;8688;54.444;18.444;2023-03-12T11:01:04;3.77;;;0.70;;
17145;SDS011;8688;54.444;18.444;2023-03-12T11:03:38;2.97;;;0.70;;
17145;SDS011;8688;54.444;18.444;2023-03-12T11:06:06;1.90;;;0.60;;
17145;SDS011;8688;54.444;18.444;2023-03-12T11:08:41;2.13;;;0.87;;
17145;SDS011;8688;54.444;18.444;2023-03-12T11:11:11;1.37;;;0.50;;
17145;SDS011;8688;54.444;18.444;2023-03-12T11:13:39;3.20;;;0.97;;
17145;SDS011;8688;54.444;18.444;2023-03-12T11:16:22;1.43;;;0.57;;
17145;SDS011;8688;54.444;18.444;2023-03-12T11:18:53;1.33;;;0.50;;
17145;SDS011;8688;54.444;18.444;2023-03-12T11:21:24;1.60;;;0.93;;
17145;SDS011;8688;54.444;18.444;2023-03-12T11:24:09;1.70;;;0.80;;
17145;SDS011;8688;54.444;18.444;2023-03-12T11:26:40;3.40;;;0.87;;
17145;SDS011;8688;54.444;18.444;2023-03-12T11:29:16;2.13;;;0.50;;
17145;SDS011;8688;54.444;18.444;2023-03-12T11:31:54;2.63;;;0.57;;
17145;SDS011;8688;54.444;18.444;2023-03-12T11:34:26;2.43;;;0.50;;
17145;SDS011;8688;54.444;18.444;2023-03-12T11:36:57;2.00;;;0.50;;
17145;SDS011;8688;54.444;18.444;2023-03-12T11:39:35;2.77;;;0.70;;
17145;SDS011;8688;54.444;18.444;2023-03-12T11:42:13;2.27;;;0.80;;
17145;SDS011;8688;54.444;18.444;2023-03-12T11:44:52;2.83;;;0.70;;
17145;SDS011;8688;54.444;18.444;2023-03-12T11:47:39;1.63;;;0.63;;
17145;SDS011;8688;54.444;18.444;2023-03-12T11:50:21;1.70;;;0.53;;
17145;SDS011;8688;54.444;18.444;2023-03-12T11:53:00;5.00;;;1.50;;
17145;SDS011;8688;54.444;18.444;2023-03-12T11:55:44;2.47;;;0.50;;
17145;SDS011;8688;54.444;18.444;2023-03-12T11:58:25;2.00;;;0.80;;
17145;SDS011;8688;54.444;18.444;2023-03-12T12:01:08;1.80;;;0.30;;
17145;SDS011;8688;54.444;18.444;2023-03-12T12:06:43;1.73;;;0.40;;
17145;SDS011;8688;54.444;18.444;2023-03-12T12:09:20;2.23;;;0.60;;
17145;SDS011;8688;54.444;18.444;2023-03-12T12:12:02;1.07;;;0.50;;
17145;SDS011;8688;54.444;18.444;2023-03-12T12:14:52;1.60;;;0.53;;
17145;SDS011;8688;54.444;18.444;2023-03-12T12:17:33;1.93;;;0.53;;
17145;SDS011;8688;54.444;18.444;2023-03-12T12:20:20;4.40;;;0.40;;
17145;SDS011;8688;54.444;18.444;2023-03-12T12:22:58;1.87;;;0.50;;
17145;SDS011;8688;54.444;18.444;2023-03-12T12:25:44;1.83;;;0.70;;
17145;SDS011;8688;54.444;18.444;2023-03-12T12:28:29;3.33;;;0.70;;
17145;SDS011;8688;54.444;18.444;2023-03-12T12:31:27;2.17;;;0.50;;
17145;SDS011;8688;54.444;18.444;2023-03-12T12:36:49;0.63;;;0.50;;
17145;SDS011;8688;54.444;18.444;2023-03-12T12:39:25;2.80;;;0.70;;
17145;SDS011;8688;54.444;18.444;2023-03-12T12:41:58;2.00;;;0.50;;
17145;SDS011;8688;54.444;18.444;2023-03-12T12:44:32;3.43;;;0.90;;
17145;SDS011;8688;54.444;18.444;2023-03-12T12:47:04;1.03;;;0.53;;
17145;SDS011;8688;54.444;18.444;2023-03-12T12:49:39;1.83;;;0.37;;
17145;SDS011;8688;54.444;18.444;2023-03-12T12:52:10;3.00;;;0.60;;
17145;SDS011;8688;54.444;18.444;2023-03-12T12:54:47;2.27;;;0.67;;
17145;SDS011;8688;54.444;18.444;2023-03-12T12:57:22;1.57;;;0.63;;
17145;SDS011;8688;54.444;18.444;2023-03-12T13:00:02;5.23;;;1.37;;
17145;SDS011;8688;54.444;18.444;2023-03-12T13:02:55;5.40;;;0.67;;
17145;SDS011;8688;54.444;18.444;2023-03-12T13:05:24;4.47;;;1.10;;
17145;SDS011;8688;54.444;18.444;2023-03-12T13:07:54;3.77;;;1.10;;
17145;SDS011;8688;54.444;18.444;2023-03-12T13:10:38;3.30;;;0.77;;
17145;SDS011;8688;54.444;18.444;2023-03-12T13:13:09;2.33;;;0.80;;
17145;SDS011;8688;54.444;18.444;2023-03-12T13:15:45;4.90;;;0.80;;
17145;SDS011;8688;54.444;18.444;2023-03-12T13:18:20;3.60;;;0.60;;
17145;SDS011;8688;54.444;18.444;2023-03-12T13:21:03;7.53;;;1.30;;
17145;SDS011;8688;54.444;18.444;2023-03-12T13:23:42;4.93;;;2.03;;
17145;SDS011;8688;54.444;18.444;2023-03-12T13:26:19;4.80;;;1.50;;
17145;SDS011;8688;54.444;18.444;2023-03-12T13:28:56;5.93;;;1.30;;
17145;SDS011;8688;54.444;18.444;2023-03-12T13:31:41;2.70;;;0.80;;
17145;SDS011;8688;54.444;18.444;2023-03-12T13:34:29;6.63;;;1.10;;
17145;SDS011;8688;54.444;18.444;2023-03-12T13:37:19;3.40;;;1.10;;
17145;SDS011;8688;54.444;18.444;2023-03-12T13:39:54;3.47;;;1.07;;
17145;SDS011;8688;54.444;18.444;2023-03-12T13:42:35;2.67;;;1.23;;
17145;SDS011;8688;54.444;18.444;2023-03-12T13:45:25;3.03;;;1.30;;
17145;SDS011;8688;54.444;18.444;2023-03-12T13:47:57;2.80;;;0.77;;
17145;SDS011;8688;54.444;18.444;2023-03-12T13:50:27;6.37;;;0.97;;
17145;SDS011;8688;54.444;18.444;2023-03-12T13:53:00;3.03;;;1.13;;
17145;SDS011;8688;54.444;18.444;2023-03-12T13:55:31;3.87;;;1.27;;
17145;SDS011;8688;54.444;18.444;2023-03-12T13:58:03;6.60;;;1.83;;
17145;SDS011;8688;54.444;18.444;2023-03-12T14:00:38;4.93;;;1.30;;
17145;SDS011;8688;54.444;18.444;2023-03-12T14:03:13;4.10;;;1.80;;
17145;SDS011;8688;54.444;18.444;2023-03-12T14:05:45;2.63;;;1.10;;
17145;SDS011;8688;54.444;18.444;2023-03-12T14:08:18;4.73;;;1.00;;
17145;SDS011;8688;54.444;18.444;2023-03-12T14:16:59;3.37;;;1.00;;
17145;SDS011;8688;54.444;18.444;2023-03-12T14:19:32;4.30;;;1.03;;
17145;SDS011;8688;54.444;18.444;2023-03-12T14:22:01;3.50;;;0.80;;
17145;SDS011;8688;54.444;18.444;2023-03-12T14:24:32;5.40;;;1.00;;
17145;SDS011;8688;54.444;18.444;2023-03-12T14:27:03;1.57;;;0.90;;
17145;SDS011;8688;54.444;18.444;2023-03-12T14:29:37;4.83;;;1.13;;
17145;SDS011;8688;54.444;18.444;2023-03-12T14:32:11;8.23;;;1.30;;
17145;SDS011;8688;54.444;18.444;2023-03-12T14:34:46;3.00;;;1.20;;
17145;SDS011;8688;54.444;18.444;2023-03-12T14:37:19;4.53;;;1.30;;
17145;SDS011;8688;54.444;18.444;2023-03-12T14:39:51;3.53;;;1.30;;
17145;SDS011;8688;54.444;18.444;2023-03-12T14:42:21;4.50;;;1.30;;
17145;SDS011;8688;54.444;18.444;2023-03-12T14:44:54;4.17;;;1.50;;
17145;SDS011;8688;54.444;18.444;2023-03-12T14:47:25;2.83;;;1.20;;
17145;SDS011;8688;54.444;18.444;2023-03-12T14:49:55;3.60;;;2.10;;
17145;SDS011;8688;54.444;18.444;2023-03-12T14:52:24;4.23;;;1.53;;
17145;SDS011;8688;54.444;18.444;2023-03-12T14:54:54;4.17;;;1.50;;
17145;SDS011;8688;54.444;18.444;2023-03-12T14:57:23;3.43;;;1.10;;
17145;SDS011;8688;54.444;18.444;2023-03-12T14:59:51;4.20;;;1.20;;
17145;SDS011;8688;54.444;18.444;2023-03-12T15:02:19;4.87;;;1.63;;
17145;SDS011;8688;54.444;18.444;2023-03-12T15:04:47;9.00;;;2.60;;
17145;SDS011;8688;54.444;18.444;2023-03-12T15:07:18;6.73;;;2.47;;
17145;SDS011;8688;54.444;18.444;2023-03-12T15:09:49;5.17;;;2.13;;
17145;SDS011;8688;54.444;18.444;2023-03-12T15:12:19;6.60;;;2.37;;
17145;SDS011;8688;54.444;18.444;2023-03-12T15:14:49;7.30;;;2.70;;
17145;SDS011;8688;54.444;18.444;2023-03-12T15:17:21;6.07;;;2.20;;
17145;SDS011;8688;54.444;18.444;2023-03-12T15:19:51;5.83;;;2.10;;
17145;SDS011;8688;54.444;18.444;2023-03-12T15:22:23;4.40;;;1.93;;